Time;durP1;ratioP1;P1;durP2;ratioP2;P2;SDS_P1;SDS_P2;PMS_P1;PMS_P2;Temp;Humidity;BMP_temperature;BMP_pressure;BME280_temperature;BME280_humidity;BME280_pressure;Samples;Min_cycle;Max_cycle;Signal;HPM_P1;HPM_P2
2023/05/08 00:01:06;;;;;;;4.13;2.90;;;;;;;;;;5076029;28;20204;-58
2023/05/08 00:03:33;;;;;;;4.27;3.07;;;;;;;;;;5076117;28;20203;-58
2023/05/08 00:06:04;;;;;;;4.33;2.33;;;;;;;;;;5076372;28;20227;-58
2023/05/08 00:08:31;;;;;;;4.67;2.50;;;;;;;;;;5076095;28;20204;-58
2023/05/08 00:10:59;;;;;;;11.80;5.03;;;;;;;;;;5075942;28;20203;-58
2023/05/08 00:13:26;;;;;;;6.47;3.27;;;;;;;;;;5075884;28;20195;-59
2023/05/08 00:15:54;;;;;;;6.43;3.00;;;;;;;;;;5075519;28;20207;-58
2023/05/08 00:18:21;;;;;;;4.00;2.17;;;;;;;;;;5075598;28;20675;-58
2023/05/08 00:20:48;;;;;;;4.30;3.03;;;;;;;;;;5075885;28;20206;-58
2023/05/08 00:23:15;;;;;;;5.80;3.60;;;;;;;;;;5075456;28;20214;-58
2023/05/08 00:25:43;;;;;;;4.20;3.10;;;;;;;;;;5074381;28;20231;-58
2023/05/08 00:28:10;;;;;;;4.80;2.93;;;;;;;;;;5075564;28;20648;-58
2023/05/08 00:30:37;;;;;;;5.87;3.47;;;;;;;;;;5075241;28;20195;-58
2023/05/08 00:33:04;;;;;;;5.50;2.70;;;;;;;;;;5075625;28;20282;-58
2023/05/08 00:35:31;;;;;;;2.90;2.00;;;;;;;;;;5075295;28;20679;-58
2023/05/08 00:37:58;;;;;;;5.60;2.30;;;;;;;;;;5074279;28;20656;-58
2023/05/08 00:40:26;;;;;;;5.00;2.90;;;;;;;;;;5074993;28;20235;-58
2023/05/08 00:42:54;;;;;;;5.80;3.27;;;;;;;;;;5107987;28;20192;-57
2023/05/08 00:45:21;;;;;;;6.20;3.40;;;;;;;;;;5075241;28;20223;-58
2023/05/08 00:47:49;;;;;;;3.50;2.30;;;;;;;;;;5057380;28;20211;-58
2023/05/08 00:50:17;;;;;;;5.80;2.90;;;;;;;;;;5074026;28;20204;-58
2023/05/08 00:52:45;;;;;;;4.23;2.10;;;;;;;;;;5075320;28;20249;-58
2023/05/08 00:55:12;;;;;;;2.93;1.77;;;;;;;;;;5074744;28;20208;-58
2023/05/08 00:57:39;;;;;;;2.33;1.90;;;;;;;;;;5074782;28;20210;-58
2023/05/08 01:00:08;;;;;;;2.30;1.80;;;;;;;;;;5075156;28;20242;-58
2023/05/08 01:02:35;;;;;;;3.50;2.00;;;;;;;;;;5074609;28;20697;-58
2023/05/08 01:05:03;;;;;;;2.87;1.70;;;;;;;;;;5074741;28;20280;-58
2023/05/08 01:07:31;;;;;;;2.10;1.87;;;;;;;;;;5057227;28;20203;-58
2023/05/08 01:09:58;;;;;;;2.33;1.67;;;;;;;;;;5074546;28;20203;-58
2023/05/08 01:12:44;;;;;;;1.77;1.53;;;;;;;;;;5074464;28;20199;-58
2023/05/08 01:15:17;;;;;;;2.80;1.87;;;;;;;;;;5074458;28;20211;-58
2023/05/08 01:18:06;;;;;;;3.50;2.17;;;;;;;;;;5056777;28;20309;-58
2023/05/08 01:20:41;;;;;;;2.73;1.73;;;;;;;;;;5106938;28;20652;-58
2023/05/08 01:23:27;;;;;;;3.47;2.13;;;;;;;;;;5073508;28;20198;-58
2023/05/08 01:26:31;;;;;;;3.47;2.20;;;;;;;;;;5073293;28;20318;-57
2023/05/08 01:29:32;;;;;;;2.80;1.80;;;;;;;;;;5074589;28;20553;-57
2023/05/08 01:32:13;;;;;;;3.73;2.40;;;;;;;;;;5073011;28;20206;-58
2023/05/08 01:35:04;;;;;;;3.77;2.63;;;;;;;;;;5074080;28;20229;-58
2023/05/08 01:37:36;;;;;;;2.53;1.70;;;;;;;;;;5066004;28;20680;-58
2023/05/08 01:40:17;;;;;;;3.90;1.90;;;;;;;;;;5072961;28;20804;-58
2023/05/08 01:42:48;;;;;;;3.77;2.10;;;;;;;;;;5072798;28;20569;-58
2023/05/08 01:45:25;;;;;;;4.73;2.30;;;;;;;;;;5056136;28;20585;-58
2023/05/08 01:48:00;;;;;;;4.43;2.50;;;;;;;;;;5085096;28;20697;-58
2023/05/08 01:50:35;;;;;;;4.73;2.40;;;;;;;;;;5076299;28;20655;-57
2023/05/08 01:53:19;;;;;;;4.03;2.37;;;;;;;;;;5093197;28;20224;-58
2023/05/08 01:55:48;;;;;;;3.57;2.47;;;;;;;;;;5092778;28;20648;-58
2023/05/08 01:58:17;;;;;;;3.53;2.30;;;;;;;;;;5092876;28;20260;-57
2023/05/08 02:00:44;;;;;;;2.23;1.67;;;;;;;;;;5075903;28;20209;-58
2023/05/08 02:03:13;;;;;;;4.80;2.13;;;;;;;;;;5093003;28;20206;-58
2023/05/08 02:05:41;;;;;;;3.63;2.40;;;;;;;;;;5094027;28;20313;-58
2023/05/08 02:08:11;;;;;;;5.43;2.37;;;;;;;;;;5092655;28;20206;-57
2023/05/08 02:10:40;;;;;;;4.30;2.33;;;;;;;;;;5076024;28;20202;-58
2023/05/08 02:13:09;;;;;;;2.87;2.10;;;;;;;;;;5075876;28;20205;-58
2023/05/08 02:15:37;;;;;;;4.47;2.07;;;;;;;;;;5092353;28;20602;-58
2023/05/08 02:18:07;;;;;;;2.80;1.77;;;;;;;;;;5075861;28;20220;-58
2023/05/08 02:20:35;;;;;;;2.43;2.03;;;;;;;;;;5075825;28;20203;-58
2023/05/08 02:23:03;;;;;;;2.33;1.70;;;;;;;;;;5092392;28;20207;-58
2023/05/08 02:25:30;;;;;;;5.10;2.07;;;;;;;;;;5092671;28;20222;-57
2023/05/08 02:27:58;;;;;;;3.63;2.10;;;;;;;;;;5092088;28;20209;-58
2023/05/08 02:30:25;;;;;;;4.33;1.97;;;;;;;;;;5092131;28;20313;-57
2023/05/08 02:32:53;;;;;;;2.23;1.83;;;;;;;;;;5092111;28;20202;-57
2023/05/08 02:35:20;;;;;;;2.60;1.90;;;;;;;;;;5092075;28;20259;-58
2023/05/08 02:37:51;;;;;;;3.10;2.23;;;;;;;;;;5091989;28;20198;-58
2023/05/08 02:40:19;;;;;;;2.70;2.17;;;;;;;;;;5091978;28;20586;-58
2023/05/08 02:42:47;;;;;;;2.63;1.97;;;;;;;;;;5091910;28;20690;-57
2023/05/08 02:45:15;;;;;;;2.23;2.03;;;;;;;;;;5093029;28;20215;-58
2023/05/08 02:48:03;;;;;;;2.37;2.13;;;;;;;;;;5091848;28;20736;-59
2023/05/08 02:50:54;;;;;;;3.93;1.93;;;;;;;;;;5092046;28;20679;-58
2023/05/08 02:53:45;;;;;;;2.90;1.90;;;;;;;;;;5075730;28;20210;-58
2023/05/08 02:57:02;;;;;;;3.97;2.53;;;;;;;;;;5074645;28;20241;-58
2023/05/08 02:59:40;;;;;;;3.07;2.13;;;;;;;;;;5092813;28;20693;-58
2023/05/08 03:02:34;;;;;;;1.97;1.57;;;;;;;;;;5075580;28;20207;-58
2023/05/08 03:05:07;;;;;;;3.67;1.60;;;;;;;;;;5092862;28;20222;-58
2023/05/08 03:07:37;;;;;;;3.77;2.20;;;;;;;;;;5091777;28;20617;-58
2023/05/08 03:10:11;;;;;;;3.87;2.60;;;;;;;;;;5075431;28;20289;-58
2023/05/08 03:12:40;;;;;;;2.57;1.70;;;;;;;;;;5075659;28;20213;-57
2023/05/08 03:15:24;;;;;;;3.70;2.10;;;;;;;;;;5079070;28;20198;-58
2023/05/08 03:17:54;;;;;;;3.50;2.10;;;;;;;;;;5096460;28;20186;-57
2023/05/08 03:20:23;;;;;;;7.07;2.63;;;;;;;;;;5079049;28;20603;-58
2023/05/08 03:22:52;;;;;;;2.90;2.07;;;;;;;;;;5079314;28;20207;-58
2023/05/08 03:25:20;;;;;;;3.33;2.03;;;;;;;;;;5095553;28;20227;-58
2023/05/08 03:27:48;;;;;;;6.20;2.53;;;;;;;;;;5079045;28;20206;-60
2023/05/08 03:30:16;;;;;;;3.50;2.50;;;;;;;;;;5076254;28;20218;-58
2023/05/08 03:32:51;;;;;;;4.70;2.73;;;;;;;;;;5093797;28;20229;-59
2023/05/08 03:35:19;;;;;;;3.87;2.07;;;;;;;;;;5042362;28;20233;-59
2023/05/08 03:37:46;;;;;;;4.20;2.37;;;;;;;;;;5076503;28;20207;-58
2023/05/08 03:40:14;;;;;;;3.73;2.33;;;;;;;;;;5092193;28;20719;-58
2023/05/08 03:42:41;;;;;;;3.27;2.20;;;;;;;;;;5078569;28;20224;-58
2023/05/08 03:45:10;;;;;;;3.77;2.00;;;;;;;;;;5062172;28;20230;-58
2023/05/08 03:47:37;;;;;;;3.43;2.10;;;;;;;;;;5095315;28;20198;-59
2023/05/08 03:50:05;;;;;;;2.57;1.77;;;;;;;;;;5095450;28;20230;-59
2023/05/08 03:52:33;;;;;;;3.47;1.97;;;;;;;;;;5078367;28;20203;-58
2023/05/08 03:55:01;;;;;;;2.63;1.97;;;;;;;;;;5095397;28;20203;-59
2023/05/08 03:57:34;;;;;;;4.10;2.30;;;;;;;;;;5087631;28;20281;-59
2023/05/08 04:00:06;;;;;;;2.73;2.03;;;;;;;;;;5090914;28;20237;-59
2023/05/08 04:02:59;;;;;;;1.90;1.70;;;;;;;;;;5075321;28;20222;-59
2023/05/08 04:05:50;;;;;;;2.57;1.97;;;;;;;;;;5075101;28;20292;-58
2023/05/08 04:08:29;;;;;;;3.57;2.33;;;;;;;;;;5077108;28;20227;-57
2023/05/08 04:11:10;;;;;;;3.70;2.40;;;;;;;;;;5094250;28;20214;-59
2023/05/08 04:13:42;;;;;;;5.57;2.87;;;;;;;;;;5084848;28;20230;-58
2023/05/08 04:16:20;;;;;;;6.17;3.10;;;;;;;;;;5076528;28;20222;-58
2023/05/08 04:18:48;;;;;;;4.53;2.47;;;;;;;;;;5094168;28;20222;-59
2023/05/08 04:21:19;;;;;;;3.53;2.43;;;;;;;;;;5077160;28;20227;-58
2023/05/08 04:23:49;;;;;;;3.73;2.63;;;;;;;;;;5093630;28;20226;-58
2023/05/08 04:26:17;;;;;;;4.53;2.67;;;;;;;;;;5077025;28;20597;-58
2023/05/08 04:28:46;;;;;;;4.50;2.97;;;;;;;;;;5093542;28;20222;-58
2023/05/08 04:31:18;;;;;;;4.60;2.60;;;;;;;;;;5092784;28;20226;-58
2023/05/08 04:33:45;;;;;;;3.77;2.67;;;;;;;;;;5093809;28;20279;-59
2023/05/08 04:36:13;;;;;;;5.67;3.33;;;;;;;;;;5094652;28;20222;-58
2023/05/08 04:38:43;;;;;;;5.73;2.90;;;;;;;;;;5093706;28;20234;-59
2023/05/08 04:41:11;;;;;;;4.33;2.90;;;;;;;;;;5093288;28;20458;-57
2023/05/08 04:43:39;;;;;;;4.37;2.63;;;;;;;;;;5093140;28;20746;-59
2023/05/08 04:46:07;;;;;;;4.00;2.50;;;;;;;;;;5093392;28;20234;-57
2023/05/08 04:48:34;;;;;;;4.03;2.70;;;;;;;;;;5093139;28;20218;-59
2023/05/08 04:51:02;;;;;;;4.17;2.30;;;;;;;;;;5092233;28;20235;-58
2023/05/08 04:53:29;;;;;;;4.67;2.77;;;;;;;;;;5092336;27;20219;-56
2023/05/08 04:55:57;;;;;;;4.97;3.10;;;;;;;;;;5093423;28;20227;-58
2023/05/08 04:58:27;;;;;;;6.60;3.10;;;;;;;;;;5091513;28;20230;-58
2023/05/08 05:00:55;;;;;;;5.93;2.70;;;;;;;;;;5090931;28;20219;-58
2023/05/08 05:03:22;;;;;;;4.90;2.77;;;;;;;;;;5080747;28;20268;-57
2023/05/08 05:05:57;;;;;;;4.20;2.43;;;;;;;;;;5092923;28;20304;-59
2023/05/08 05:08:24;;;;;;;4.43;2.67;;;;;;;;;;5094365;28;20238;-59
2023/05/08 05:10:53;;;;;;;6.30;2.70;;;;;;;;;;5093551;28;20206;-59
2023/05/08 05:13:20;;;;;;;3.57;2.27;;;;;;;;;;5093533;28;20644;-59
2023/05/08 05:15:50;;;;;;;3.07;2.43;;;;;;;;;;5093864;28;20198;-60
2023/05/08 05:18:17;;;;;;;3.88;2.28;;;;;;;;;;5091616;28;20703;-60
2023/05/08 05:20:45;;;;;;;3.38;2.33;;;;;;;;;;5091908;28;20213;-58
2023/05/08 05:23:12;;;;;;;2.33;2.00;;;;;;;;;;5092395;28;20567;-58
2023/05/08 05:25:39;;;;;;;3.65;2.60;;;;;;;;;;5091140;28;20218;-59
2023/05/08 05:28:06;;;;;;;4.18;2.35;;;;;;;;;;5092063;28;20517;-58
2023/05/08 05:30:34;;;;;;;3.65;2.55;;;;;;;;;;5092376;28;20202;-58
2023/05/08 05:33:01;;;;;;;3.10;2.20;;;;;;;;;;5094884;28;20205;-59
2023/05/08 05:35:28;;;;;;;3.17;2.03;;;;;;;;;;5093729;28;20975;-58
2023/05/08 05:37:56;;;;;;;2.05;1.52;;;;;;;;;;5093437;28;20202;-57
2023/05/08 05:40:23;;;;;;;3.50;1.77;;;;;;;;;;5094606;28;20231;-59
2023/05/08 05:42:51;;;;;;;3.20;1.27;;;;;;;;;;5093176;28;20199;-58
2023/05/08 05:45:18;;;;;;;1.27;1.17;;;;;;;;;;5093172;28;20199;-58
2023/05/08 05:47:48;;;;;;;2.45;1.50;;;;;;;;;;5092987;28;20213;-58
2023/05/08 05:50:20;;;;;;;4.22;1.63;;;;;;;;;;5094380;28;20264;-58
2023/05/08 05:52:48;;;;;;;1.80;1.30;;;;;;;;;;5092772;28;20203;-58
2023/05/08 05:55:16;;;;;;;3.20;2.10;;;;;;;;;;5092930;28;20214;-59
2023/05/08 05:57:45;;;;;;;1.90;1.45;;;;;;;;;;5093045;28;20281;-59
2023/05/08 06:00:15;;;;;;;1.70;1.40;;;;;;;;;;5092727;28;20199;-59
2023/05/08 06:02:47;;;;;;;2.15;1.48;;;;;;;;;;5093206;28;20205;-59
2023/05/08 06:05:18;;;;;;;2.53;1.17;;;;;;;;;;5092641;28;20202;-59
2023/05/08 06:07:45;;;;;;;1.40;1.05;;;;;;;;;;5092664;28;20674;-59
2023/05/08 06:10:12;;;;;;;1.67;1.23;;;;;;;;;;5092546;28;20679;-59
2023/05/08 06:12:40;;;;;;;1.48;1.10;;;;;;;;;;5093954;28;20255;-60
2023/05/08 06:15:09;;;;;;;2.38;1.10;;;;;;;;;;5092982;28;20203;-59
2023/05/08 06:17:37;;;;;;;1.92;1.13;;;;;;;;;;5093728;28;20229;-59
2023/05/08 06:20:06;;;;;;;1.52;1.13;;;;;;;;;;5092373;28;20209;-59
2023/05/08 06:22:33;;;;;;;1.10;1.00;;;;;;;;;;5093511;28;20226;-58
2023/05/08 06:25:00;;;;;;;1.63;0.98;;;;;;;;;;5093611;28;20198;-58
2023/05/08 06:27:27;;;;;;;1.27;1.17;;;;;;;;;;5093481;28;20227;-58
2023/05/08 06:29:55;;;;;;;2.35;1.20;;;;;;;;;;5093815;28;20214;-59
2023/05/08 06:32:21;;;;;;;1.63;1.00;;;;;;;;;;5093727;28;20264;-58
2023/05/08 06:34:49;;;;;;;1.15;0.90;;;;;;;;;;5093785;28;20202;-59
2023/05/08 06:37:16;;;;;;;1.20;0.93;;;;;;;;;;5093729;28;20233;-59
2023/05/08 06:39:44;;;;;;;1.40;1.08;;;;;;;;;;5093482;28;20199;-59
2023/05/08 06:42:11;;;;;;;0.73;0.70;;;;;;;;;;5093451;28;20214;-59
2023/05/08 06:44:39;;;;;;;1.17;0.70;;;;;;;;;;5092431;28;20571;-58
2023/05/08 06:47:07;;;;;;;1.75;0.90;;;;;;;;;;5094430;28;20314;-58
2023/05/08 06:49:35;;;;;;;1.17;1.00;;;;;;;;;;5097719;28;20213;-60
2023/05/08 06:52:02;;;;;;;1.48;0.95;;;;;;;;;;5097739;28;20206;-59
2023/05/08 06:54:29;;;;;;;1.73;0.93;;;;;;;;;;5097807;28;20213;-58
2023/05/08 06:56:56;;;;;;;1.40;1.13;;;;;;;;;;5097574;28;20236;-59
2023/05/08 06:59:23;;;;;;;2.83;1.10;;;;;;;;;;5097598;28;20203;-58
2023/05/08 07:01:50;;;;;;;0.93;0.90;;;;;;;;;;5097178;28;20202;-57
2023/05/08 07:04:18;;;;;;;0.80;0.77;;;;;;;;;;5097705;28;20206;-59
2023/05/08 07:06:45;;;;;;;1.40;1.00;;;;;;;;;;5097371;28;20280;-59
2023/05/08 07:09:13;;;;;;;1.33;0.90;;;;;;;;;;5097411;28;20260;-58
2023/05/08 07:11:39;;;;;;;1.35;1.00;;;;;;;;;;5097347;28;20550;-59
2023/05/08 07:14:07;;;;;;;4.50;1.10;;;;;;;;;;5097029;28;20686;-59
2023/05/08 07:16:34;;;;;;;2.70;0.90;;;;;;;;;;5096915;28;20206;-59
2023/05/08 07:19:01;;;;;;;1.45;1.00;;;;;;;;;;5097292;28;20211;-59
2023/05/08 07:21:28;;;;;;;0.93;0.82;;;;;;;;;;5097461;28;20224;-59
2023/05/08 07:23:55;;;;;;;1.85;1.08;;;;;;;;;;5097288;28;20203;-56
2023/05/08 07:26:22;;;;;;;1.42;1.15;;;;;;;;;;5096724;28;20759;-59
2023/05/08 07:28:52;;;;;;;1.60;1.13;;;;;;;;;;5097181;28;20559;-58
2023/05/08 07:31:20;;;;;;;1.13;1.00;;;;;;;;;;5096707;28;20210;-59
2023/05/08 07:33:47;;;;;;;1.30;0.93;;;;;;;;;;5097066;28;20578;-59
2023/05/08 07:36:14;;;;;;;1.40;1.05;;;;;;;;;;5097006;28;20209;-61
2023/05/08 07:38:42;;;;;;;1.30;0.90;;;;;;;;;;5096610;28;20209;-59
2023/05/08 07:41:09;;;;;;;1.17;1.08;;;;;;;;;;5096961;28;20269;-58
2023/05/08 07:43:36;;;;;;;1.83;1.20;;;;;;;;;;5096517;28;20202;-59
2023/05/08 07:46:04;;;;;;;1.63;1.02;;;;;;;;;;5096672;28;20230;-59
2023/05/08 07:48:31;;;;;;;2.20;1.05;;;;;;;;;;5096487;28;20252;-59
2023/05/08 07:50:58;;;;;;;1.75;1.17;;;;;;;;;;5096916;28;20263;-58
2023/05/08 07:53:26;;;;;;;2.35;1.33;;;;;;;;;;5096317;28;20612;-60
2023/05/08 07:55:53;;;;;;;2.88;1.30;;;;;;;;;;5096280;28;20285;-59
2023/05/08 07:58:20;;;;;;;1.27;0.98;;;;;;;;;;5095317;28;20199;-58
2023/05/08 08:00:49;;;;;;;2.70;1.27;;;;;;;;;;5094897;28;20659;-59
2023/05/08 08:03:17;;;;;;;1.02;0.93;;;;;;;;;;5096095;28;20566;-59
2023/05/08 08:05:44;;;;;;;1.10;1.00;;;;;;;;;;5096172;28;20209;-59
2023/05/08 08:08:11;;;;;;;2.03;1.20;;;;;;;;;;5096133;28;20222;-59
2023/05/08 08:10:38;;;;;;;1.65;1.00;;;;;;;;;;5096500;28;20202;-58
2023/05/08 08:13:05;;;;;;;1.50;1.25;;;;;;;;;;5095925;28;20202;-59
2023/05/08 08:15:32;;;;;;;2.17;1.20;;;;;;;;;;5095854;28;20659;-59
2023/05/08 08:18:00;;;;;;;1.20;0.90;;;;;;;;;;5096235;28;20203;-58
2023/05/08 08:20:27;;;;;;;1.67;1.17;;;;;;;;;;5095909;28;20286;-59
2023/05/08 08:22:54;;;;;;;1.98;1.20;;;;;;;;;;5095932;28;20210;-58
2023/05/08 08:25:21;;;;;;;1.25;1.00;;;;;;;;;;5095899;28;20643;-59
2023/05/08 08:27:49;;;;;;;1.38;1.15;;;;;;;;;;5096494;28;20234;-57
2023/05/08 08:30:16;;;;;;;1.83;1.13;;;;;;;;;;5095630;28;20207;-58
2023/05/08 08:32:45;;;;;;;2.22;1.20;;;;;;;;;;5095788;28;20229;-59
2023/05/08 08:35:12;;;;;;;1.17;0.90;;;;;;;;;;5095753;28;20209;-59
2023/05/08 08:37:40;;;;;;;1.80;1.08;;;;;;;;;;5095523;28;20202;-58
2023/05/08 08:40:07;;;;;;;1.52;1.10;;;;;;;;;;5095627;28;20284;-58
2023/05/08 08:42:34;;;;;;;1.55;1.10;;;;;;;;;;5095383;28;20199;-59
2023/05/08 08:45:01;;;;;;;1.17;0.90;;;;;;;;;;5095704;28;20281;-59
2023/05/08 08:47:36;;;;;;;1.58;1.17;;;;;;;;;;5095390;28;20226;-59
2023/05/08 08:50:04;;;;;;;2.25;0.93;;;;;;;;;;5095743;28;20523;-59
2023/05/08 08:52:39;;;;;;;1.67;1.05;;;;;;;;;;5095149;28;20207;-59
2023/05/08 08:55:09;;;;;;;1.75;1.17;;;;;;;;;;5094266;28;20214;-59
2023/05/08 08:57:44;;;;;;;1.10;0.77;;;;;;;;;;5095640;28;20191;-59
2023/05/08 09:00:12;;;;;;;2.03;1.02;;;;;;;;;;5095526;28;20202;-59
2023/05/08 09:02:39;;;;;;;2.00;1.15;;;;;;;;;;5093872;28;20202;-59
2023/05/08 09:05:07;;;;;;;1.73;1.23;;;;;;;;;;5094021;28;20210;-59
2023/05/08 09:07:34;;;;;;;2.40;1.10;;;;;;;;;;5093627;28;20715;-58
2023/05/08 09:10:05;;;;;;;1.35;1.10;;;;;;;;;;5094262;28;20198;-59
2023/05/08 09:12:32;;;;;;;1.48;1.15;;;;;;;;;;5094672;28;20210;-59
2023/05/08 09:14:59;;;;;;;2.00;1.50;;;;;;;;;;5094763;28;20202;-58
2023/05/08 09:17:26;;;;;;;1.08;0.90;;;;;;;;;;5094685;28;20206;-59
2023/05/08 09:19:53;;;;;;;2.25;1.30;;;;;;;;;;5095375;28;20203;-59
2023/05/08 09:22:22;;;;;;;2.95;1.23;;;;;;;;;;5093705;28;20206;-59
2023/05/08 09:24:52;;;;;;;2.38;1.02;;;;;;;;;;5093936;28;20210;-58
2023/05/08 09:27:24;;;;;;;1.88;1.20;;;;;;;;;;5094885;28;20211;-59
2023/05/08 09:30:03;;;;;;;3.03;1.20;;;;;;;;;;5094478;28;20191;-59
2023/05/08 09:32:31;;;;;;;3.58;1.48;;;;;;;;;;5094471;28;20564;-59
2023/05/08 09:34:59;;;;;;;1.60;1.30;;;;;;;;;;5094517;28;20294;-58
2023/05/08 09:37:27;;;;;;;2.03;1.20;;;;;;;;;;5094487;28;20210;-59
2023/05/08 09:39:54;;;;;;;1.75;0.98;;;;;;;;;;5094138;28;20230;-59
2023/05/08 09:42:22;;;;;;;1.30;0.95;;;;;;;;;;5094262;28;20663;-58
2023/05/08 09:44:51;;;;;;;1.77;1.20;;;;;;;;;;5094501;28;20221;-58
2023/05/08 09:47:20;;;;;;;2.17;1.02;;;;;;;;;;5094501;28;20231;-59
2023/05/08 09:50:08;;;;;;;1.60;0.88;;;;;;;;;;5094170;28;20202;-58
2023/05/08 09:52:37;;;;;;;1.73;1.17;;;;;;;;;;5094313;28;20191;-59
2023/05/08 09:55:10;;;;;;;1.42;1.08;;;;;;;;;;5094089;28;20202;-58
2023/05/08 09:57:39;;;;;;;1.63;1.15;;;;;;;;;;5094260;28;20207;-59
2023/05/08 10:00:08;;;;;;;2.28;0.85;;;;;;;;;;5094302;28;20209;-59
2023/05/08 10:02:41;;;;;;;2.17;1.10;;;;;;;;;;5093851;28;20587;-59
2023/05/08 10:05:26;;;;;;;1.85;1.23;;;;;;;;;;5094127;28;20229;-59
2023/05/08 10:07:54;;;;;;;1.27;1.00;;;;;;;;;;5094119;28;20588;-60
2023/05/08 10:10:26;;;;;;;2.47;1.15;;;;;;;;;;5094124;28;20232;-59
2023/05/08 10:12:54;;;;;;;2.03;1.10;;;;;;;;;;5093813;28;20199;-59
2023/05/08 10:15:31;;;;;;;2.03;0.90;;;;;;;;;;5093788;28;20205;-59
2023/05/08 10:18:06;;;;;;;1.50;1.08;;;;;;;;;;5092771;28;20194;-59
2023/05/08 10:20:36;;;;;;;1.48;0.90;;;;;;;;;;5093659;28;20708;-58
2023/05/08 10:23:10;;;;;;;1.40;1.02;;;;;;;;;;5093436;28;20202;-59
2023/05/08 10:25:42;;;;;;;2.28;1.00;;;;;;;;;;5093755;28;20256;-59
2023/05/08 10:28:15;;;;;;;1.35;1.00;;;;;;;;;;5093557;28;20230;-59
2023/05/08 10:30:46;;;;;;;1.67;1.15;;;;;;;;;;5093793;28;20209;-58
2023/05/08 10:33:16;;;;;;;1.15;0.85;;;;;;;;;;5093568;28;20195;-59
2023/05/08 10:35:44;;;;;;;1.65;1.17;;;;;;;;;;5092377;28;20602;-59
2023/05/08 10:38:13;;;;;;;1.48;1.10;;;;;;;;;;5093773;28;20724;-58
2023/05/08 10:40:40;;;;;;;1.00;0.90;;;;;;;;;;5092238;28;20234;-58
2023/05/08 10:43:08;;;;;;;0.90;0.90;;;;;;;;;;5092500;28;20202;-59
2023/05/08 10:45:36;;;;;;;1.98;1.00;;;;;;;;;;5092453;28;20199;-59
2023/05/08 10:48:24;;;;;;;1.60;1.00;;;;;;;;;;5093538;28;20226;-59
2023/05/08 10:51:00;;;;;;;1.55;0.93;;;;;;;;;;5092885;28;20183;-59
2023/05/08 10:53:36;;;;;;;1.27;0.85;;;;;;;;;;5092579;28;20197;-59
2023/05/08 10:56:03;;;;;;;1.17;1.05;;;;;;;;;;5093782;28;20202;-59
2023/05/08 10:58:32;;;;;;;1.08;0.95;;;;;;;;;;5092187;28;20205;-58
2023/05/08 11:00:59;;;;;;;1.90;1.15;;;;;;;;;;5093427;28;20209;-59
2023/05/08 11:03:28;;;;;;;1.52;1.08;;;;;;;;;;5093293;28;20202;-58
2023/05/08 11:06:00;;;;;;;1.52;1.02;;;;;;;;;;5093358;28;20199;-61
2023/05/08 11:08:29;;;;;;;1.02;0.77;;;;;;;;;;5093360;28;20242;-59
2023/05/08 11:10:59;;;;;;;2.13;0.98;;;;;;;;;;5093121;28;20647;-59
2023/05/08 11:13:28;;;;;;;1.77;1.10;;;;;;;;;;5093450;28;20203;-59
2023/05/08 11:15:55;;;;;;;5.07;1.05;;;;;;;;;;5093364;28;20599;-59
2023/05/08 11:18:24;;;;;;;1.83;1.23;;;;;;;;;;5093051;28;20675;-57
2023/05/08 11:20:57;;;;;;;1.20;0.98;;;;;;;;;;5093660;28;20230;-59
2023/05/08 11:23:26;;;;;;;1.63;1.02;;;;;;;;;;5093483;28;20202;-58
2023/05/08 11:26:01;;;;;;;1.20;0.82;;;;;;;;;;5093066;28;20202;-58
2023/05/08 11:28:38;;;;;;;1.77;1.20;;;;;;;;;;5093169;28;20233;-59
2023/05/08 11:31:07;;;;;;;2.25;0.80;;;;;;;;;;5093039;28;20214;-59
2023/05/08 11:33:37;;;;;;;1.30;1.10;;;;;;;;;;5093153;28;20217;-59
2023/05/08 11:36:21;;;;;;;3.28;1.10;;;;;;;;;;5097006;28;20227;-59
2023/05/08 11:39:12;;;;;;;1.27;1.00;;;;;;;;;;5096879;28;20207;-60
2023/05/08 11:41:39;;;;;;;1.15;1.05;;;;;;;;;;5097179;28;20269;-58
2023/05/08 11:44:19;;;;;;;3.13;1.05;;;;;;;;;;5096839;28;20217;-60
2023/05/08 11:46:49;;;;;;;1.38;0.93;;;;;;;;;;5096440;28;20611;-59
2023/05/08 11:49:18;;;;;;;1.67;1.23;;;;;;;;;;5096631;28;20206;-60
2023/05/08 11:51:56;;;;;;;0.93;0.90;;;;;;;;;;5096532;28;20217;-60
2023/05/08 11:54:28;;;;;;;1.65;1.13;;;;;;;;;;5096639;28;20207;-57
2023/05/08 11:56:56;;;;;;;2.40;1.23;;;;;;;;;;5096323;28;20670;-59
2023/05/08 11:59:23;;;;;;;1.20;1.00;;;;;;;;;;5096460;28;20207;-58
2023/05/08 12:01:51;;;;;;;1.60;1.00;;;;;;;;;;5096274;28;20199;-60
2023/05/08 12:04:21;;;;;;;1.90;1.20;;;;;;;;;;5095984;28;20659;-62
2023/05/08 12:06:50;;;;;;;1.40;1.00;;;;;;;;;;5096326;28;20538;-60
2023/05/08 12:09:19;;;;;;;3.22;0.93;;;;;;;;;;5096196;28;20232;-60
2023/05/08 12:11:46;;;;;;;1.73;1.08;;;;;;;;;;5096118;28;20205;-61
2023/05/08 12:14:16;;;;;;;1.80;1.10;;;;;;;;;;5095930;28;20203;-60
2023/05/08 12:16:43;;;;;;;1.10;1.00;;;;;;;;;;5096178;28;20229;-60
2023/05/08 12:19:12;;;;;;;1.52;1.20;;;;;;;;;;5090076;28;20215;-59
2023/05/08 12:21:47;;;;;;;1.52;1.20;;;;;;;;;;5086391;28;20549;-58
2023/05/08 12:24:21;;;;;;;2.30;1.20;;;;;;;;;;5081226;28;20209;-59
2023/05/08 12:26:49;;;;;;;1.20;0.80;;;;;;;;;;5095865;28;20580;-58
2023/05/08 12:29:20;;;;;;;1.60;0.85;;;;;;;;;;5094189;28;20230;-58
2023/05/08 12:31:47;;;;;;;1.40;1.00;;;;;;;;;;5093294;28;20203;-56
2023/05/08 12:34:15;;;;;;;1.48;1.10;;;;;;;;;;5094507;28;20663;-58
2023/05/08 12:36:41;;;;;;;1.70;1.10;;;;;;;;;;5093559;28;20609;-58
2023/05/08 12:39:14;;;;;;;1.85;0.95;;;;;;;;;;5094600;28;20255;-59
2023/05/08 12:41:45;;;;;;;1.90;1.13;;;;;;;;;;5095091;28;20242;-58
2023/05/08 12:44:21;;;;;;;1.55;1.00;;;;;;;;;;5095118;28;20187;-59
2023/05/08 12:46:57;;;;;;;1.58;1.00;;;;;;;;;;5095542;28;20186;-58
2023/05/08 12:49:30;;;;;;;1.08;0.90;;;;;;;;;;5095805;28;20226;-56
2023/05/08 12:52:08;;;;;;;1.17;0.90;;;;;;;;;;5095502;28;20244;-56
2023/05/08 12:54:44;;;;;;;1.13;0.93;;;;;;;;;;5095514;28;20202;-58
2023/05/08 12:57:15;;;;;;;1.65;0.98;;;;;;;;;;5095161;28;20190;-58
2023/05/08 12:59:44;;;;;;;1.63;1.20;;;;;;;;;;5094096;28;20256;-58
2023/05/08 13:02:20;;;;;;;2.75;1.40;;;;;;;;;;5095080;28;20281;-59
2023/05/08 13:04:55;;;;;;;2.60;1.17;;;;;;;;;;5095008;28;20694;-59
2023/05/08 13:07:22;;;;;;;2.47;1.00;;;;;;;;;;5094957;28;20285;-59
2023/05/08 13:09:57;;;;;;;1.40;0.82;;;;;;;;;;5094324;28;20662;-58
2023/05/08 13:12:24;;;;;;;1.40;1.13;;;;;;;;;;5090022;28;20221;-56
2023/05/08 13:14:51;;;;;;;1.85;1.00;;;;;;;;;;5094105;28;20226;-58
2023/05/08 13:17:18;;;;;;;1.98;1.05;;;;;;;;;;5094101;28;20222;-59
2023/05/08 13:19:45;;;;;;;1.60;0.88;;;;;;;;;;5093839;28;20268;-57
2023/05/08 13:22:12;;;;;;;1.27;1.08;;;;;;;;;;5093995;28;20556;-58
2023/05/08 13:24:39;;;;;;;1.83;1.15;;;;;;;;;;5093888;28;20230;-60
2023/05/08 13:27:06;;;;;;;3.10;1.30;;;;;;;;;;5093464;28;20230;-60
2023/05/08 13:29:33;;;;;;;1.00;0.90;;;;;;;;;;5093507;28;20249;-60
2023/05/08 13:32:00;;;;;;;0.82;0.80;;;;;;;;;;5094068;28;20225;-60
2023/05/08 13:34:27;;;;;;;1.30;1.17;;;;;;;;;;5093807;28;20218;-58
2023/05/08 13:36:54;;;;;;;1.00;0.85;;;;;;;;;;5093985;28;20257;-59
2023/05/08 13:39:22;;;;;;;1.77;1.38;;;;;;;;;;5093806;28;20231;-60
2023/05/08 13:41:48;;;;;;;1.40;1.08;;;;;;;;;;5089597;28;20703;-58
2023/05/08 13:44:16;;;;;;;2.05;1.05;;;;;;;;;;5078533;28;20702;-58
2023/05/08 13:46:43;;;;;;;1.52;1.17;;;;;;;;;;5093136;28;20222;-57
2023/05/08 13:49:10;;;;;;;1.10;0.80;;;;;;;;;;5083191;28;20595;-59
2023/05/08 13:51:37;;;;;;;1.02;0.88;;;;;;;;;;5080059;28;20227;-59
2023/05/08 13:54:04;;;;;;;1.35;0.98;;;;;;;;;;5093464;28;20229;-58
2023/05/08 13:56:31;;;;;;;1.65;1.05;;;;;;;;;;5092050;28;20226;-58
2023/05/08 13:58:58;;;;;;;1.30;0.90;;;;;;;;;;5092954;28;20710;-57
2023/05/08 14:01:26;;;;;;;1.95;0.95;;;;;;;;;;5085526;28;20727;-59
2023/05/08 14:03:54;;;;;;;2.90;1.10;;;;;;;;;;5079514;28;20222;-59
2023/05/08 14:06:21;;;;;;;1.45;1.08;;;;;;;;;;5093138;28;20227;-58
2023/05/08 14:08:49;;;;;;;1.85;1.10;;;;;;;;;;5086897;28;20691;-60
2023/05/08 14:11:21;;;;;;;2.58;0.90;;;;;;;;;;5092713;28;20222;-57
2023/05/08 14:13:48;;;;;;;1.38;0.98;;;;;;;;;;5093149;28;20226;-57
2023/05/08 14:16:15;;;;;;;1.52;1.00;;;;;;;;;;5093342;28;20214;-60
2023/05/08 14:18:42;;;;;;;1.52;0.90;;;;;;;;;;5093302;28;20253;-59
2023/05/08 14:21:09;;;;;;;0.90;0.80;;;;;;;;;;5093088;28;20237;-59
2023/05/08 14:23:37;;;;;;;1.55;0.90;;;;;;;;;;5092945;28;20230;-59
2023/05/08 14:26:04;;;;;;;1.05;0.95;;;;;;;;;;5092945;28;20224;-59
2023/05/08 14:28:31;;;;;;;1.33;1.10;;;;;;;;;;5092799;28;20234;-59
2023/05/08 14:30:58;;;;;;;1.67;1.00;;;;;;;;;;5093248;28;20664;-57
2023/05/08 14:33:26;;;;;;;2.45;1.00;;;;;;;;;;5092704;28;20691;-59
2023/05/08 14:35:53;;;;;;;1.00;0.88;;;;;;;;;;5092899;28;20272;-58
2023/05/08 14:38:20;;;;;;;1.35;0.95;;;;;;;;;;5092862;28;20575;-59
2023/05/08 14:40:50;;;;;;;2.25;1.00;;;;;;;;;;5092794;28;20238;-58
2023/05/08 14:43:17;;;;;;;0.98;0.85;;;;;;;;;;5088786;28;20256;-59
2023/05/08 14:45:44;;;;;;;1.33;0.93;;;;;;;;;;5081348;28;20746;-59
2023/05/08 14:48:11;;;;;;;1.75;1.00;;;;;;;;;;5073602;28;20238;-59
2023/05/08 14:50:38;;;;;;;1.30;0.90;;;;;;;;;;5086390;28;20233;-61
2023/05/08 14:53:06;;;;;;;1.85;0.98;;;;;;;;;;5073717;28;20227;-58
2023/05/08 14:55:33;;;;;;;1.73;0.93;;;;;;;;;;5085603;28;20219;-59
2023/05/08 14:58:00;;;;;;;1.13;1.00;;;;;;;;;;5092504;28;20280;-59
2023/05/08 15:00:27;;;;;;;1.70;1.02;;;;;;;;;;5092583;28;20254;-55